sensor_id;sensor_type;location;lat;lon;timestamp;P1;durP1;ratioP1;P2;durP2;ratioP2
52284;SDS011;38238;53.304;6.606;2022-10-31T00:02:07;16.17;;;13.63;;
52284;SDS011;38238;53.304;6.606;2022-10-31T00:04:33;17.55;;;12.48;;
52284;SDS011;38238;53.304;6.606;2022-10-31T00:06:59;18.23;;;12.73;;
52284;SDS011;38238;53.304;6.606;2022-10-31T00:09:24;17.00;;;12.77;;
52284;SDS011;38238;53.304;6.606;2022-10-31T00:11:50;14.32;;;11.57;;
52284;SDS011;38238;53.304;6.606;2022-10-31T00:14:16;16.65;;;12.05;;
52284;SDS011;38238;53.304;6.606;2022-10-31T00:16:41;19.73;;;12.43;;
52284;SDS011;38238;53.304;6.606;2022-10-31T00:19:07;18.30;;;12.63;;
52284;SDS011;38238;53.304;6.606;2022-10-31T00:21:33;19.90;;;12.18;;
52284;SDS011;38238;53.304;6.606;2022-10-31T00:24:00;18.05;;;12.40;;
52284;SDS011;38238;53.304;6.606;2022-10-31T00:26:27;17.63;;;11.63;;
52284;SDS011;38238;53.304;6.606;2022-10-31T00:28:53;16.20;;;11.95;;
52284;SDS011;38238;53.304;6.606;2022-10-31T00:31:19;18.17;;;12.20;;
52284;SDS011;38238;53.304;6.606;2022-10-31T00:33:45;20.63;;;12.20;;
52284;SDS011;38238;53.304;6.606;2022-10-31T00:36:15;22.63;;;13.18;;
52284;SDS011;38238;53.304;6.606;2022-10-31T00:38:42;15.35;;;12.40;;
52284;SDS011;38238;53.304;6.606;2022-10-31T00:41:09;18.83;;;12.45;;
52284;SDS011;38238;53.304;6.606;2022-10-31T00:43:35;19.63;;;13.07;;
52284;SDS011;38238;53.304;6.606;2022-10-31T00:46:01;18.73;;;13.43;;
52284;SDS011;38238;53.304;6.606;2022-10-31T00:48:27;19.58;;;12.60;;
52284;SDS011;38238;53.304;6.606;2022-10-31T00:50:53;17.08;;;13.07;;
52284;SDS011;38238;53.304;6.606;2022-10-31T00:53:19;18.40;;;12.27;;
52284;SDS011;38238;53.304;6.606;2022-10-31T00:55:45;16.45;;;12.10;;
52284;SDS011;38238;53.304;6.606;2022-10-31T00:58:11;16.27;;;11.98;;
52284;SDS011;38238;53.304;6.606;2022-10-31T01:00:36;19.02;;;13.20;;
52284;SDS011;38238;53.304;6.606;2022-10-31T01:03:02;18.42;;;13.43;;
52284;SDS011;38238;53.304;6.606;2022-10-31T01:05:28;15.43;;;12.80;;
52284;SDS011;38238;53.304;6.606;2022-10-31T01:07:53;16.67;;;13.05;;
52284;SDS011;38238;53.304;6.606;2022-10-31T01:10:19;17.92;;;12.25;;
52284;SDS011;38238;53.304;6.606;2022-10-31T01:12:46;18.70;;;12.27;;
52284;SDS011;38238;53.304;6.606;2022-10-31T01:15:13;19.00;;;12.93;;
52284;SDS011;38238;53.304;6.606;2022-10-31T01:17:41;16.88;;;13.15;;
52284;SDS011;38238;53.304;6.606;2022-10-31T01:20:07;19.00;;;13.95;;
52284;SDS011;38238;53.304;6.606;2022-10-31T01:22:35;17.45;;;12.77;;
52284;SDS011;38238;53.304;6.606;2022-10-31T01:25:00;17.17;;;13.52;;
52284;SDS011;38238;53.304;6.606;2022-10-31T01:27:26;16.02;;;13.82;;
52284;SDS011;38238;53.304;6.606;2022-10-31T01:29:52;17.42;;;13.85;;
52284;SDS011;38238;53.304;6.606;2022-10-31T01:32:18;19.17;;;14.32;;
52284;SDS011;38238;53.304;6.606;2022-10-31T01:34:43;19.88;;;14.27;;
52284;SDS011;38238;53.304;6.606;2022-10-31T01:37:09;19.17;;;13.88;;
52284;SDS011;38238;53.304;6.606;2022-10-31T01:39:35;16.85;;;13.65;;
52284;SDS011;38238;53.304;6.606;2022-10-31T01:42:01;18.15;;;14.00;;
52284;SDS011;38238;53.304;6.606;2022-10-31T01:47:05;19.90;;;13.52;;
52284;SDS011;38238;53.304;6.606;2022-10-31T01:49:42;17.58;;;14.18;;
52284;SDS011;38238;53.304;6.606;2022-10-31T01:52:23;21.35;;;13.68;;
52284;SDS011;38238;53.304;6.606;2022-10-31T01:55:14;17.80;;;13.13;;
52284;SDS011;38238;53.304;6.606;2022-10-31T01:57:41;16.63;;;12.43;;
52284;SDS011;38238;53.304;6.606;2022-10-31T02:00:10;17.10;;;12.98;;
52284;SDS011;38238;53.304;6.606;2022-10-31T02:02:36;18.25;;;12.18;;
52284;SDS011;38238;53.304;6.606;2022-10-31T02:05:04;16.55;;;12.50;;
52284;SDS011;38238;53.304;6.606;2022-10-31T02:07:39;17.35;;;12.77;;
52284;SDS011;38238;53.304;6.606;2022-10-31T02:10:06;16.17;;;12.63;;
52284;SDS011;38238;53.304;6.606;2022-10-31T02:12:32;18.63;;;12.65;;
52284;SDS011;38238;53.304;6.606;2022-10-31T02:15:01;16.38;;;13.30;;
52284;SDS011;38238;53.304;6.606;2022-10-31T02:17:28;17.40;;;13.38;;
52284;SDS011;38238;53.304;6.606;2022-10-31T02:39:38;19.65;;;14.05;;
52284;SDS011;38238;53.304;6.606;2022-10-31T02:47:17;19.20;;;13.30;;
52284;SDS011;38238;53.304;6.606;2022-10-31T02:49:55;17.77;;;13.75;;
52284;SDS011;38238;53.304;6.606;2022-10-31T02:52:30;15.90;;;12.65;;
52284;SDS011;38238;53.304;6.606;2022-10-31T02:54:57;17.05;;;12.80;;
52284;SDS011;38238;53.304;6.606;2022-10-31T02:57:24;14.70;;;12.68;;
52284;SDS011;38238;53.304;6.606;2022-10-31T02:59:54;17.80;;;12.27;;
52284;SDS011;38238;53.304;6.606;2022-10-31T03:02:35;16.48;;;12.02;;
52284;SDS011;38238;53.304;6.606;2022-10-31T03:11:00;19.55;;;14.48;;
52284;SDS011;38238;53.304;6.606;2022-10-31T03:13:46;19.08;;;13.73;;
52284;SDS011;38238;53.304;6.606;2022-10-31T03:16:28;17.77;;;13.35;;
52284;SDS011;38238;53.304;6.606;2022-10-31T03:19:17;16.83;;;13.98;;
52284;SDS011;38238;53.304;6.606;2022-10-31T03:21:56;15.88;;;13.38;;
52284;SDS011;38238;53.304;6.606;2022-10-31T03:24:36;17.00;;;13.85;;
52284;SDS011;38238;53.304;6.606;2022-10-31T03:27:04;19.33;;;14.02;;
52284;SDS011;38238;53.304;6.606;2022-10-31T03:29:34;17.08;;;13.52;;
52284;SDS011;38238;53.304;6.606;2022-10-31T03:32:09;19.33;;;14.38;;
52284;SDS011;38238;53.304;6.606;2022-10-31T03:34:43;17.13;;;14.20;;
52284;SDS011;38238;53.304;6.606;2022-10-31T03:37:11;17.85;;;13.55;;
52284;SDS011;38238;53.304;6.606;2022-10-31T03:39:41;18.23;;;13.20;;
52284;SDS011;38238;53.304;6.606;2022-10-31T03:42:14;17.50;;;13.23;;
52284;SDS011;38238;53.304;6.606;2022-10-31T03:44:45;18.90;;;14.25;;
52284;SDS011;38238;53.304;6.606;2022-10-31T03:47:16;20.00;;;13.85;;
52284;SDS011;38238;53.304;6.606;2022-10-31T03:49:42;15.45;;;13.00;;
52284;SDS011;38238;53.304;6.606;2022-10-31T03:52:19;16.02;;;13.70;;
52284;SDS011;38238;53.304;6.606;2022-10-31T03:55:10;19.23;;;13.57;;
52284;SDS011;38238;53.304;6.606;2022-10-31T04:00:51;19.25;;;14.60;;
52284;SDS011;38238;53.304;6.606;2022-10-31T04:03:25;17.77;;;14.57;;
52284;SDS011;38238;53.304;6.606;2022-10-31T04:05:54;19.67;;;14.02;;
52284;SDS011;38238;53.304;6.606;2022-10-31T04:08:26;18.27;;;13.73;;
52284;SDS011;38238;53.304;6.606;2022-10-31T04:10:56;18.38;;;13.00;;
52284;SDS011;38238;53.304;6.606;2022-10-31T04:13:29;18.17;;;14.68;;
52284;SDS011;38238;53.304;6.606;2022-10-31T04:15:57;19.13;;;13.90;;
52284;SDS011;38238;53.304;6.606;2022-10-31T04:18:23;19.67;;;14.20;;
52284;SDS011;38238;53.304;6.606;2022-10-31T04:20:58;16.25;;;13.43;;
52284;SDS011;38238;53.304;6.606;2022-10-31T04:23:34;19.75;;;14.27;;
52284;SDS011;38238;53.304;6.606;2022-10-31T04:26:00;18.05;;;13.85;;
52284;SDS011;38238;53.304;6.606;2022-10-31T04:28:26;17.52;;;13.68;;
52284;SDS011;38238;53.304;6.606;2022-10-31T04:30:52;20.13;;;15.02;;
52284;SDS011;38238;53.304;6.606;2022-10-31T04:33:18;17.77;;;13.95;;
52284;SDS011;38238;53.304;6.606;2022-10-31T04:35:43;16.35;;;13.93;;
52284;SDS011;38238;53.304;6.606;2022-10-31T04:38:09;19.80;;;13.95;;
52284;SDS011;38238;53.304;6.606;2022-10-31T04:40:35;15.32;;;13.30;;
52284;SDS011;38238;53.304;6.606;2022-10-31T04:43:01;16.90;;;13.68;;
52284;SDS011;38238;53.304;6.606;2022-10-31T04:45:27;16.10;;;12.95;;
52284;SDS011;38238;53.304;6.606;2022-10-31T04:47:55;17.00;;;13.20;;
52284;SDS011;38238;53.304;6.606;2022-10-31T04:50:21;18.67;;;13.23;;
52284;SDS011;38238;53.304;6.606;2022-10-31T04:52:47;16.15;;;13.38;;
52284;SDS011;38238;53.304;6.606;2022-10-31T04:55:13;17.08;;;13.50;;
52284;SDS011;38238;53.304;6.606;2022-10-31T04:57:43;17.55;;;14.27;;
52284;SDS011;38238;53.304;6.606;2022-10-31T05:00:10;18.20;;;13.63;;
52284;SDS011;38238;53.304;6.606;2022-10-31T05:02:43;15.75;;;12.85;;
52284;SDS011;38238;53.304;6.606;2022-10-31T05:05:10;17.83;;;12.85;;
52284;SDS011;38238;53.304;6.606;2022-10-31T05:07:46;16.15;;;13.18;;
52284;SDS011;38238;53.304;6.606;2022-10-31T05:10:14;14.20;;;12.55;;
52284;SDS011;38238;53.304;6.606;2022-10-31T05:12:48;17.58;;;13.60;;
52284;SDS011;38238;53.304;6.606;2022-10-31T05:15:15;15.98;;;13.45;;
52284;SDS011;38238;53.304;6.606;2022-10-31T05:17:42;14.73;;;12.70;;
52284;SDS011;38238;53.304;6.606;2022-10-31T05:20:09;16.65;;;13.77;;
52284;SDS011;38238;53.304;6.606;2022-10-31T05:22:36;16.63;;;12.95;;
52284;SDS011;38238;53.304;6.606;2022-10-31T05:25:01;18.40;;;13.20;;
52284;SDS011;38238;53.304;6.606;2022-10-31T05:27:27;15.20;;;12.77;;
52284;SDS011;38238;53.304;6.606;2022-10-31T05:29:53;15.70;;;12.25;;
52284;SDS011;38238;53.304;6.606;2022-10-31T05:32:19;17.77;;;12.90;;
52284;SDS011;38238;53.304;6.606;2022-10-31T05:34:44;16.77;;;13.32;;
52284;SDS011;38238;53.304;6.606;2022-10-31T05:37:10;17.77;;;13.18;;
52284;SDS011;38238;53.304;6.606;2022-10-31T05:39:36;16.15;;;13.43;;
52284;SDS011;38238;53.304;6.606;2022-10-31T05:42:02;16.98;;;14.18;;
52284;SDS011;38238;53.304;6.606;2022-10-31T05:44:28;18.13;;;13.88;;
52284;SDS011;38238;53.304;6.606;2022-10-31T05:46:54;17.38;;;13.77;;
52284;SDS011;38238;53.304;6.606;2022-10-31T05:49:19;17.10;;;13.30;;
52284;SDS011;38238;53.304;6.606;2022-10-31T05:51:45;16.85;;;13.75;;
52284;SDS011;38238;53.304;6.606;2022-10-31T05:54:11;16.27;;;13.65;;
52284;SDS011;38238;53.304;6.606;2022-10-31T05:56:36;16.70;;;14.07;;
52284;SDS011;38238;53.304;6.606;2022-10-31T05:59:02;15.52;;;13.55;;
52284;SDS011;38238;53.304;6.606;2022-10-31T06:01:28;19.30;;;14.30;;
52284;SDS011;38238;53.304;6.606;2022-10-31T06:03:53;18.02;;;13.75;;
52284;SDS011;38238;53.304;6.606;2022-10-31T06:06:19;17.83;;;15.77;;
52284;SDS011;38238;53.304;6.606;2022-10-31T06:08:45;19.70;;;14.90;;
52284;SDS011;38238;53.304;6.606;2022-10-31T06:11:10;22.27;;;16.58;;
52284;SDS011;38238;53.304;6.606;2022-10-31T06:13:36;21.08;;;18.83;;
52284;SDS011;38238;53.304;6.606;2022-10-31T06:16:02;18.52;;;16.10;;
52284;SDS011;38238;53.304;6.606;2022-10-31T06:18:27;20.48;;;17.25;;
52284;SDS011;38238;53.304;6.606;2022-10-31T06:20:53;18.67;;;15.27;;
52284;SDS011;38238;53.304;6.606;2022-10-31T06:23:19;19.35;;;16.05;;
52284;SDS011;38238;53.304;6.606;2022-10-31T06:25:48;17.83;;;14.70;;
52284;SDS011;38238;53.304;6.606;2022-10-31T06:28:14;20.02;;;14.45;;
52284;SDS011;38238;53.304;6.606;2022-10-31T06:30:40;20.20;;;14.52;;
52284;SDS011;38238;53.304;6.606;2022-10-31T06:33:06;17.25;;;15.32;;
52284;SDS011;38238;53.304;6.606;2022-10-31T06:35:32;17.92;;;14.07;;
52284;SDS011;38238;53.304;6.606;2022-10-31T06:37:58;17.73;;;14.15;;
52284;SDS011;38238;53.304;6.606;2022-10-31T06:40:24;17.27;;;13.75;;
52284;SDS011;38238;53.304;6.606;2022-10-31T06:42:56;17.15;;;13.65;;
52284;SDS011;38238;53.304;6.606;2022-10-31T06:45:28;18.67;;;14.95;;
52284;SDS011;38238;53.304;6.606;2022-10-31T06:47:54;19.25;;;14.88;;
52284;SDS011;38238;53.304;6.606;2022-10-31T06:50:21;17.48;;;14.80;;
52284;SDS011;38238;53.304;6.606;2022-10-31T06:52:51;16.33;;;14.00;;
52284;SDS011;38238;53.304;6.606;2022-10-31T06:55:18;17.08;;;14.05;;
52284;SDS011;38238;53.304;6.606;2022-10-31T06:57:49;16.60;;;14.10;;
52284;SDS011;38238;53.304;6.606;2022-10-31T07:00:18;16.98;;;13.40;;
52284;SDS011;38238;53.304;6.606;2022-10-31T07:02:55;16.00;;;13.00;;
52284;SDS011;38238;53.304;6.606;2022-10-31T07:05:28;17.38;;;13.75;;
52284;SDS011;38238;53.304;6.606;2022-10-31T07:07:55;18.10;;;13.57;;
52284;SDS011;38238;53.304;6.606;2022-10-31T07:10:22;15.40;;;13.57;;
52284;SDS011;38238;53.304;6.606;2022-10-31T07:12:53;17.88;;;13.32;;
52284;SDS011;38238;53.304;6.606;2022-10-31T07:15:20;17.13;;;14.10;;
52284;SDS011;38238;53.304;6.606;2022-10-31T07:17:45;16.83;;;13.77;;
52284;SDS011;38238;53.304;6.606;2022-10-31T07:20:11;17.40;;;13.30;;
52284;SDS011;38238;53.304;6.606;2022-10-31T07:22:37;16.52;;;13.25;;
52284;SDS011;38238;53.304;6.606;2022-10-31T07:25:03;14.20;;;11.88;;
52284;SDS011;38238;53.304;6.606;2022-10-31T07:27:34;14.93;;;11.43;;
52284;SDS011;38238;53.304;6.606;2022-10-31T07:30:04;12.80;;;11.13;;
52284;SDS011;38238;53.304;6.606;2022-10-31T07:35:27;12.65;;;11.02;;
52284;SDS011;38238;53.304;6.606;2022-10-31T07:37:54;17.58;;;12.15;;
52284;SDS011;38238;53.304;6.606;2022-10-31T07:40:20;14.82;;;12.23;;
52284;SDS011;38238;53.304;6.606;2022-10-31T07:42:48;17.02;;;13.07;;
52284;SDS011;38238;53.304;6.606;2022-10-31T07:45:16;15.90;;;13.27;;
52284;SDS011;38238;53.304;6.606;2022-10-31T07:47:52;17.75;;;15.02;;
52284;SDS011;38238;53.304;6.606;2022-10-31T07:50:28;17.13;;;14.23;;
52284;SDS011;38238;53.304;6.606;2022-10-31T07:53:11;16.65;;;14.15;;
52284;SDS011;38238;53.304;6.606;2022-10-31T07:55:38;18.45;;;13.80;;
52284;SDS011;38238;53.304;6.606;2022-10-31T07:58:13;17.80;;;14.23;;
52284;SDS011;38238;53.304;6.606;2022-10-31T08:00:41;17.77;;;15.60;;
52284;SDS011;38238;53.304;6.606;2022-10-31T08:03:09;18.77;;;16.27;;
52284;SDS011;38238;53.304;6.606;2022-10-31T08:05:37;20.50;;;16.05;;
52284;SDS011;38238;53.304;6.606;2022-10-31T08:08:05;18.60;;;16.27;;
52284;SDS011;38238;53.304;6.606;2022-10-31T08:10:31;18.90;;;16.20;;
52284;SDS011;38238;53.304;6.606;2022-10-31T08:13:02;19.05;;;15.27;;
52284;SDS011;38238;53.304;6.606;2022-10-31T08:15:30;19.52;;;16.95;;
52284;SDS011;38238;53.304;6.606;2022-10-31T08:17:56;18.90;;;16.88;;
52284;SDS011;38238;53.304;6.606;2022-10-31T08:20:22;21.67;;;17.45;;
52284;SDS011;38238;53.304;6.606;2022-10-31T08:23:01;20.00;;;17.00;;
52284;SDS011;38238;53.304;6.606;2022-10-31T08:25:30;20.42;;;17.15;;
52284;SDS011;38238;53.304;6.606;2022-10-31T08:27:57;19.77;;;16.77;;
52284;SDS011;38238;53.304;6.606;2022-10-31T08:30:24;20.52;;;18.15;;
52284;SDS011;38238;53.304;6.606;2022-10-31T08:35:43;19.58;;;16.63;;
52284;SDS011;38238;53.304;6.606;2022-10-31T08:38:10;19.45;;;16.08;;
52284;SDS011;38238;53.304;6.606;2022-10-31T08:40:37;20.42;;;18.33;;
52284;SDS011;38238;53.304;6.606;2022-10-31T08:45:35;19.23;;;16.73;;
52284;SDS011;38238;53.304;6.606;2022-10-31T08:48:04;18.75;;;16.90;;
52284;SDS011;38238;53.304;6.606;2022-10-31T08:50:33;20.50;;;15.82;;
52284;SDS011;38238;53.304;6.606;2022-10-31T08:53:04;18.48;;;16.52;;
52284;SDS011;38238;53.304;6.606;2022-10-31T08:55:36;18.60;;;16.52;;
52284;SDS011;38238;53.304;6.606;2022-10-31T08:58:03;18.30;;;15.60;;
52284;SDS011;38238;53.304;6.606;2022-10-31T09:00:31;17.38;;;14.98;;
52284;SDS011;38238;53.304;6.606;2022-10-31T09:02:57;18.73;;;14.07;;
52284;SDS011;38238;53.304;6.606;2022-10-31T09:05:24;22.85;;;16.15;;
52284;SDS011;38238;53.304;6.606;2022-10-31T09:07:51;20.10;;;16.88;;
52284;SDS011;38238;53.304;6.606;2022-10-31T09:10:20;20.63;;;16.70;;
52284;SDS011;38238;53.304;6.606;2022-10-31T09:12:45;19.80;;;15.18;;
52284;SDS011;38238;53.304;6.606;2022-10-31T09:15:11;17.00;;;14.80;;
52284;SDS011;38238;53.304;6.606;2022-10-31T09:17:37;19.48;;;15.63;;
52284;SDS011;38238;53.304;6.606;2022-10-31T09:20:03;17.58;;;14.30;;
52284;SDS011;38238;53.304;6.606;2022-10-31T09:22:32;16.73;;;14.30;;
52284;SDS011;38238;53.304;6.606;2022-10-31T09:24:57;17.10;;;13.85;;
52284;SDS011;38238;53.304;6.606;2022-10-31T09:27:23;16.80;;;13.80;;
52284;SDS011;38238;53.304;6.606;2022-10-31T09:29:49;19.00;;;14.43;;
52284;SDS011;38238;53.304;6.606;2022-10-31T09:32:14;17.70;;;13.73;;
52284;SDS011;38238;53.304;6.606;2022-10-31T09:34:40;15.88;;;14.15;;
52284;SDS011;38238;53.304;6.606;2022-10-31T09:37:06;17.52;;;14.30;;
52284;SDS011;38238;53.304;6.606;2022-10-31T09:39:32;16.63;;;14.60;;
52284;SDS011;38238;53.304;6.606;2022-10-31T09:53:28;14.85;;;12.27;;
52284;SDS011;38238;53.304;6.606;2022-10-31T09:56:14;15.38;;;12.55;;
52284;SDS011;38238;53.304;6.606;2022-10-31T09:58:44;15.45;;;12.18;;
52284;SDS011;38238;53.304;6.606;2022-10-31T10:07:18;11.20;;;9.68;;
52284;SDS011;38238;53.304;6.606;2022-10-31T10:09:48;13.35;;;9.93;;
52284;SDS011;38238;53.304;6.606;2022-10-31T10:15:19;11.68;;;9.02;;
52284;SDS011;38238;53.304;6.606;2022-10-31T10:23:41;12.20;;;9.05;;
52284;SDS011;38238;53.304;6.606;2022-10-31T10:26:21;9.38;;;8.38;;
52284;SDS011;38238;53.304;6.606;2022-10-31T10:28:57;9.65;;;8.45;;
52284;SDS011;38238;53.304;6.606;2022-10-31T10:31:44;9.77;;;7.95;;
52284;SDS011;38238;53.304;6.606;2022-10-31T10:36:56;10.23;;;8.10;;
52284;SDS011;38238;53.304;6.606;2022-10-31T10:39:32;9.43;;;7.45;;
52284;SDS011;38238;53.304;6.606;2022-10-31T10:44:57;10.32;;;6.57;;
52284;SDS011;38238;53.304;6.606;2022-10-31T10:47:43;7.05;;;6.28;;
52284;SDS011;38238;53.304;6.606;2022-10-31T10:50:14;9.77;;;6.57;;
52284;SDS011;38238;53.304;6.606;2022-10-31T10:55:28;10.13;;;5.70;;
52284;SDS011;38238;53.304;6.606;2022-10-31T10:58:07;7.68;;;5.55;;
52284;SDS011;38238;53.304;6.606;2022-10-31T11:00:36;8.05;;;6.47;;
52284;SDS011;38238;53.304;6.606;2022-10-31T11:03:05;9.02;;;6.20;;
52284;SDS011;38238;53.304;6.606;2022-10-31T11:13:40;10.07;;;6.38;;
52284;SDS011;38238;53.304;6.606;2022-10-31T11:16:51;8.15;;;6.43;;
52284;SDS011;38238;53.304;6.606;2022-10-31T11:19:15;9.63;;;6.07;;
52284;SDS011;38238;53.304;6.606;2022-10-31T11:21:44;9.68;;;7.00;;
52284;SDS011;38238;53.304;6.606;2022-10-31T11:26:36;11.82;;;7.43;;
52284;SDS011;38238;53.304;6.606;2022-10-31T11:29:04;10.43;;;8.15;;
52284;SDS011;38238;53.304;6.606;2022-10-31T11:31:31;11.32;;;8.10;;
52284;SDS011;38238;53.304;6.606;2022-10-31T11:36:30;9.93;;;7.70;;
52284;SDS011;38238;53.304;6.606;2022-10-31T11:38:58;11.73;;;7.88;;
52284;SDS011;38238;53.304;6.606;2022-10-31T11:41:30;10.02;;;7.68;;
52284;SDS011;38238;53.304;6.606;2022-10-31T11:44:04;11.10;;;8.43;;
52284;SDS011;38238;53.304;6.606;2022-10-31T11:46:51;11.50;;;7.57;;
52284;SDS011;38238;53.304;6.606;2022-10-31T11:49:29;9.65;;;7.03;;
52284;SDS011;38238;53.304;6.606;2022-10-31T11:57:42;8.73;;;6.68;;
52284;SDS011;38238;53.304;6.606;2022-10-31T12:00:29;10.55;;;7.47;;
52284;SDS011;38238;53.304;6.606;2022-10-31T12:05:47;9.23;;;7.25;;
52284;SDS011;38238;53.304;6.606;2022-10-31T12:08:18;10.38;;;6.75;;
52284;SDS011;38238;53.304;6.606;2022-10-31T12:21:41;9.88;;;6.20;;
52284;SDS011;38238;53.304;6.606;2022-10-31T12:24:31;9.85;;;6.63;;
52284;SDS011;38238;53.304;6.606;2022-10-31T12:27:07;7.95;;;6.30;;
52284;SDS011;38238;53.304;6.606;2022-10-31T12:41:35;11.57;;;6.65;;
52284;SDS011;38238;53.304;6.606;2022-10-31T12:50:44;10.90;;;7.63;;
52284;SDS011;38238;53.304;6.606;2022-10-31T12:58:45;11.73;;;7.45;;
52284;SDS011;38238;53.304;6.606;2022-10-31T13:04:12;9.73;;;6.20;;
52284;SDS011;38238;53.304;6.606;2022-10-31T13:06:50;11.10;;;6.70;;
52284;SDS011;38238;53.304;6.606;2022-10-31T13:09:22;9.25;;;6.53;;
52284;SDS011;38238;53.304;6.606;2022-10-31T13:11:58;13.43;;;6.80;;
52284;SDS011;38238;53.304;6.606;2022-10-31T13:14:35;10.50;;;6.18;;
52284;SDS011;38238;53.304;6.606;2022-10-31T13:17:08;11.20;;;6.07;;
52284;SDS011;38238;53.304;6.606;2022-10-31T13:19:47;10.07;;;5.55;;
52284;SDS011;38238;53.304;6.606;2022-10-31T13:22:20;11.68;;;6.03;;
52284;SDS011;38238;53.304;6.606;2022-10-31T13:24:54;11.43;;;6.07;;
52284;SDS011;38238;53.304;6.606;2022-10-31T13:27:25;11.32;;;6.43;;
52284;SDS011;38238;53.304;6.606;2022-10-31T13:30:06;7.75;;;5.57;;
52284;SDS011;38238;53.304;6.606;2022-10-31T13:35:34;9.93;;;6.07;;
52284;SDS011;38238;53.304;6.606;2022-10-31T13:41:06;9.93;;;7.15;;
52284;SDS011;38238;53.304;6.606;2022-10-31T13:46:40;13.48;;;7.05;;
52284;SDS011;38238;53.304;6.606;2022-10-31T13:54:36;10.30;;;6.60;;
52284;SDS011;38238;53.304;6.606;2022-10-31T13:57:12;11.05;;;6.63;;
52284;SDS011;38238;53.304;6.606;2022-10-31T14:00:07;9.95;;;6.53;;
52284;SDS011;38238;53.304;6.606;2022-10-31T14:02:47;10.88;;;6.38;;
52284;SDS011;38238;53.304;6.606;2022-10-31T14:05:25;8.95;;;6.38;;
52284;SDS011;38238;53.304;6.606;2022-10-31T14:08:01;9.60;;;6.53;;
52284;SDS011;38238;53.304;6.606;2022-10-31T14:13:12;8.65;;;5.80;;
52284;SDS011;38238;53.304;6.606;2022-10-31T14:15:58;10.20;;;6.05;;
52284;SDS011;38238;53.304;6.606;2022-10-31T14:21:01;12.13;;;7.03;;
52284;SDS011;38238;53.304;6.606;2022-10-31T14:23:39;9.95;;;5.93;;
52284;SDS011;38238;53.304;6.606;2022-10-31T14:28:54;8.90;;;6.05;;
52284;SDS011;38238;53.304;6.606;2022-10-31T14:42:35;14.25;;;8.23;;
52284;SDS011;38238;53.304;6.606;2022-10-31T14:45:31;12.65;;;8.45;;
52284;SDS011;38238;53.304;6.606;2022-10-31T14:48:10;12.98;;;7.93;;
52284;SDS011;38238;53.304;6.606;2022-10-31T14:50:53;11.77;;;8.20;;
52284;SDS011;38238;53.304;6.606;2022-10-31T14:53:33;12.65;;;7.60;;
52284;SDS011;38238;53.304;6.606;2022-10-31T14:56:05;10.35;;;6.82;;
52284;SDS011;38238;53.304;6.606;2022-10-31T15:01:03;12.13;;;8.05;;
52284;SDS011;38238;53.304;6.606;2022-10-31T15:06:11;12.23;;;7.78;;
52284;SDS011;38238;53.304;6.606;2022-10-31T15:08:49;10.43;;;7.75;;
52284;SDS011;38238;53.304;6.606;2022-10-31T15:16:28;10.70;;;7.35;;
52284;SDS011;38238;53.304;6.606;2022-10-31T15:19:04;12.02;;;7.35;;
52284;SDS011;38238;53.304;6.606;2022-10-31T15:21:36;10.35;;;7.28;;
52284;SDS011;38238;53.304;6.606;2022-10-31T15:24:10;11.27;;;8.07;;
52284;SDS011;38238;53.304;6.606;2022-10-31T15:26:43;13.10;;;8.75;;
52284;SDS011;38238;53.304;6.606;2022-10-31T15:29:12;15.43;;;9.18;;
52284;SDS011;38238;53.304;6.606;2022-10-31T15:32:43;13.32;;;9.40;;
52284;SDS011;38238;53.304;6.606;2022-10-31T15:34:46;11.07;;;8.75;;
52284;SDS011;38238;53.304;6.606;2022-10-31T15:37:12;14.57;;;9.75;;
52284;SDS011;38238;53.304;6.606;2022-10-31T15:39:39;12.38;;;9.13;;
52284;SDS011;38238;53.304;6.606;2022-10-31T15:44:52;11.80;;;9.52;;
52284;SDS011;38238;53.304;6.606;2022-10-31T15:47:23;11.30;;;9.65;;
52284;SDS011;38238;53.304;6.606;2022-10-31T15:49:56;15.18;;;10.48;;
52284;SDS011;38238;53.304;6.606;2022-10-31T15:55:00;11.68;;;8.82;;
52284;SDS011;38238;53.304;6.606;2022-10-31T15:57:29;13.85;;;8.32;;
52284;SDS011;38238;53.304;6.606;2022-10-31T15:59:58;13.80;;;9.10;;
52284;SDS011;38238;53.304;6.606;2022-10-31T16:02:25;12.43;;;8.70;;
52284;SDS011;38238;53.304;6.606;2022-10-31T16:07:19;12.10;;;8.95;;
52284;SDS011;38238;53.304;6.606;2022-10-31T16:12:18;15.40;;;9.98;;
52284;SDS011;38238;53.304;6.606;2022-10-31T16:14:44;13.30;;;9.52;;
52284;SDS011;38238;53.304;6.606;2022-10-31T16:17:11;13.57;;;9.68;;
52284;SDS011;38238;53.304;6.606;2022-10-31T16:19:47;13.73;;;10.10;;
52284;SDS011;38238;53.304;6.606;2022-10-31T16:22:23;15.00;;;10.38;;
52284;SDS011;38238;53.304;6.606;2022-10-31T16:25:10;15.07;;;10.73;;
52284;SDS011;38238;53.304;6.606;2022-10-31T16:27:46;14.82;;;9.98;;
52284;SDS011;38238;53.304;6.606;2022-10-31T16:30:27;15.05;;;10.77;;
52284;SDS011;38238;53.304;6.606;2022-10-31T16:36:01;14.25;;;9.52;;
52284;SDS011;38238;53.304;6.606;2022-10-31T16:38:45;13.52;;;9.02;;
52284;SDS011;38238;53.304;6.606;2022-10-31T16:41:14;13.02;;;9.82;;
52284;SDS011;38238;53.304;6.606;2022-10-31T16:43:42;12.48;;;9.52;;
52284;SDS011;38238;53.304;6.606;2022-10-31T16:46:09;12.20;;;9.05;;
52284;SDS011;38238;53.304;6.606;2022-10-31T16:48:40;11.77;;;9.00;;
52284;SDS011;38238;53.304;6.606;2022-10-31T16:51:07;12.18;;;8.25;;
52284;SDS011;38238;53.304;6.606;2022-10-31T16:53:32;13.55;;;8.48;;
52284;SDS011;38238;53.304;6.606;2022-10-31T16:55:58;11.35;;;8.05;;
52284;SDS011;38238;53.304;6.606;2022-10-31T16:58:32;11.20;;;8.40;;
52284;SDS011;38238;53.304;6.606;2022-10-31T17:00:59;12.30;;;7.68;;
52284;SDS011;38238;53.304;6.606;2022-10-31T17:03:26;12.38;;;8.45;;
52284;SDS011;38238;53.304;6.606;2022-10-31T17:05:52;11.00;;;8.18;;
52284;SDS011;38238;53.304;6.606;2022-10-31T17:08:20;10.95;;;8.40;;
52284;SDS011;38238;53.304;6.606;2022-10-31T17:10:46;11.52;;;8.65;;
52284;SDS011;38238;53.304;6.606;2022-10-31T17:13:20;13.68;;;9.70;;
52284;SDS011;38238;53.304;6.606;2022-10-31T17:15:49;12.35;;;9.15;;
52284;SDS011;38238;53.304;6.606;2022-10-31T17:18:17;10.70;;;9.38;;
52284;SDS011;38238;53.304;6.606;2022-10-31T17:20:44;13.13;;;9.90;;
52284;SDS011;38238;53.304;6.606;2022-10-31T17:23:10;12.95;;;10.27;;
52284;SDS011;38238;53.304;6.606;2022-10-31T17:25:37;13.52;;;10.75;;
52284;SDS011;38238;53.304;6.606;2022-10-31T17:28:03;14.23;;;11.52;;
52284;SDS011;38238;53.304;6.606;2022-10-31T17:30:30;19.88;;;13.82;;
52284;SDS011;38238;53.304;6.606;2022-10-31T17:32:56;12.52;;;10.88;;
52284;SDS011;38238;53.304;6.606;2022-10-31T17:35:22;15.13;;;12.18;;
52284;SDS011;38238;53.304;6.606;2022-10-31T17:37:49;16.23;;;12.60;;
52284;SDS011;38238;53.304;6.606;2022-10-31T17:40:18;16.23;;;12.95;;
52284;SDS011;38238;53.304;6.606;2022-10-31T17:42:53;16.85;;;13.60;;
52284;SDS011;38238;53.304;6.606;2022-10-31T17:45:20;22.05;;;14.85;;
52284;SDS011;38238;53.304;6.606;2022-10-31T17:47:48;17.70;;;13.63;;
52284;SDS011;38238;53.304;6.606;2022-10-31T17:50:15;19.00;;;14.52;;
52284;SDS011;38238;53.304;6.606;2022-10-31T17:52:42;20.98;;;15.27;;
52284;SDS011;38238;53.304;6.606;2022-10-31T17:55:08;18.77;;;15.30;;
52284;SDS011;38238;53.304;6.606;2022-10-31T17:57:35;18.95;;;13.70;;
52284;SDS011;38238;53.304;6.606;2022-10-31T18:00:02;18.58;;;14.43;;